createdAt,value
2022-12-04T00:00:01.950Z,1022.4
2022-12-04T00:01:02.005Z,1022.5
2022-12-04T00:02:01.795Z,1022.4
2022-12-04T00:03:02.181Z,1022.5
2022-12-04T00:04:01.876Z,1022.5
2022-12-04T00:05:02.185Z,1022.6
2022-12-04T00:06:01.899Z,1022.5
2022-12-04T00:07:01.912Z,1022.5
2022-12-04T00:08:01.946Z,1022.6
2022-12-04T00:09:01.794Z,1022.6
2022-12-04T00:10:02.712Z,1022.6
2022-12-04T00:11:02.599Z,1022.5
2022-12-04T00:12:02.661Z,1022.6
2022-12-04T00:13:02.522Z,1022.6
2022-12-04T00:14:07.894Z,1022.5
2022-12-04T00:15:27.346Z,1022.5
2022-12-04T00:16:02.399Z,1022.6
2022-12-04T00:17:02.651Z,1022.6
2022-12-04T00:18:02.465Z,1022.6
2022-12-04T00:19:02.447Z,1022.6
2022-12-04T00:20:02.589Z,1022.6
2022-12-04T00:21:02.310Z,1022.6
2022-12-04T00:22:02.361Z,1022.6
2022-12-04T00:23:02.271Z,1022.6
2022-12-04T00:24:02.062Z,1022.6
2022-12-04T00:25:02.102Z,1022.6
2022-12-04T00:26:01.911Z,1022.6
2022-12-04T00:27:01.866Z,1022.6
2022-12-04T00:28:01.764Z,1022.6
2022-12-04T00:29:02.779Z,1022.6
2022-12-04T00:30:02.627Z,1022.6
2022-12-04T00:31:02.622Z,1022.6
2022-12-04T00:32:02.182Z,1022.6
2022-12-04T00:33:02.079Z,1022.6
2022-12-04T00:34:08.352Z,1022.6
2022-12-04T00:35:02.153Z,1022.6
2022-12-04T00:36:02.196Z,1022.6
2022-12-04T00:37:02.128Z,1022.5
2022-12-04T00:38:02.102Z,1022.5
2022-12-04T00:39:01.889Z,1022.5
2022-12-04T00:40:01.921Z,1022.5
2022-12-04T00:41:01.737Z,1022.5
2022-12-04T00:42:01.744Z,1022.5
2022-12-04T00:43:02.730Z,1022.5
2022-12-04T00:44:02.583Z,1022.5
2022-12-04T00:45:02.720Z,1022.5
2022-12-04T00:46:02.811Z,1022.5
2022-12-04T00:47:01.763Z,1022.5
2022-12-04T00:48:01.833Z,1022.5
2022-12-04T00:49:02.914Z,1022.5
2022-12-04T00:50:02.646Z,1022.5
2022-12-04T00:51:02.668Z,1022.5
2022-12-04T00:52:02.521Z,1022.5
2022-12-04T00:53:02.582Z,1022.5
2022-12-04T00:54:02.424Z,1022.5
2022-12-04T00:55:02.447Z,1022.5
2022-12-04T00:56:02.399Z,1022.6
2022-12-04T00:57:02.273Z,1022.5
2022-12-04T00:58:02.339Z,1022.5
2022-12-04T00:59:02.626Z,1022.5
2022-12-04T01:00:02.418Z,1022.7
2022-12-04T01:01:02.557Z,1022.6
2022-12-04T01:02:02.643Z,1022.5
2022-12-04T01:03:02.679Z,1022.5
2022-12-04T01:04:02.510Z,1022.7
2022-12-04T01:05:02.498Z,1022.6
2022-12-04T01:06:02.459Z,1022.6
2022-12-04T01:07:05.833Z,1022.6
2022-12-04T01:08:02.927Z,1022.6
2022-12-04T01:09:02.657Z,1022.6
2022-12-04T01:10:02.750Z,1022.5
2022-12-04T01:11:02.597Z,1022.5
2022-12-04T01:12:02.638Z,1022.5
2022-12-04T01:13:02.480Z,1022.5
2022-12-04T01:14:02.569Z,1022.5
2022-12-04T01:15:02.419Z,1022.6
2022-12-04T01:16:02.592Z,1022.5
2022-12-04T01:17:02.777Z,1022.5
2022-12-04T01:18:02.582Z,1022.4
2022-12-04T01:19:02.628Z,1022.5
2022-12-04T01:20:02.497Z,1022.5
2022-12-04T01:21:02.552Z,1022.5
2022-12-04T01:22:02.590Z,1022.5
2022-12-04T01:23:02.377Z,1022.5
2022-12-04T01:24:02.325Z,1022.5
2022-12-04T01:25:02.177Z,1022.5
2022-12-04T01:26:02.312Z,1022.5
2022-12-04T01:27:01.979Z,1022.4
2022-12-04T01:28:01.987Z,1022.5
2022-12-04T01:29:01.776Z,1022.5
2022-12-04T01:30:02.220Z,1022.4
2022-12-04T01:31:01.901Z,1022.4
2022-12-04T01:32:02.821Z,1022.4
2022-12-04T01:33:02.703Z,1022.4
2022-12-04T01:34:02.565Z,1022.4
2022-12-04T01:35:02.530Z,1022.4
2022-12-04T01:36:02.390Z,1022.3
2022-12-04T01:37:02.417Z,1022.4
2022-12-04T01:38:02.358Z,1022.4
2022-12-04T01:39:02.302Z,1022.3
2022-12-04T01:40:02.104Z,1022.3
2022-12-04T01:41:02.034Z,1022.3
2022-12-04T01:42:02.071Z,1022.2
2022-12-04T01:43:01.876Z,1022.3
2022-12-04T01:44:01.889Z,1022.3
2022-12-04T01:45:01.823Z,1022.3
2022-12-04T01:46:02.921Z,1022.3
2022-12-04T01:47:01.685Z,1022.3
2022-12-04T01:48:02.768Z,1022.3
2022-12-04T01:49:02.622Z,1022.3
2022-12-04T01:50:02.679Z,1022.3
2022-12-04T01:51:02.490Z,1022.3
2022-12-04T01:52:02.525Z,1022.3
2022-12-04T01:53:02.740Z,1022.2
2022-12-04T01:54:02.582Z,1022.3
2022-12-04T01:55:02.638Z,1022.3
2022-12-04T01:56:02.520Z,1022.3
2022-12-04T01:57:02.428Z,1022.3
2022-12-04T01:58:02.439Z,1022.4
2022-12-04T01:59:02.293Z,1022.3
2022-12-04T02:00:02.283Z,1022.3
2022-12-04T02:01:09.605Z,1022.3
2022-12-04T02:02:02.742Z,1022.3
2022-12-04T02:03:02.814Z,1022.2
2022-12-04T02:04:02.576Z,1022.2
2022-12-04T02:05:02.634Z,1022.2
2022-12-04T02:06:02.476Z,1022.2
2022-12-04T02:07:02.491Z,1022.2
2022-12-04T02:08:02.699Z,1022.2
2022-12-04T02:09:02.428Z,1022.2
2022-12-04T02:10:02.507Z,1022.3
2022-12-04T02:11:02.426Z,1022.3
2022-12-04T02:12:02.328Z,1022.3
2022-12-04T02:13:02.176Z,1022.2
2022-12-04T02:14:02.073Z,1022.3
2022-12-04T02:15:02.120Z,1022.2
2022-12-04T02:16:01.805Z,1022.2
2022-12-04T02:17:02.147Z,1022.3
2022-12-04T02:18:01.981Z,1022.2
2022-12-04T02:19:01.796Z,1022.2
2022-12-04T02:20:01.844Z,1022.2
2022-12-04T02:21:01.702Z,1022.2
2022-12-04T02:22:02.705Z,1022.1
2022-12-04T02:23:02.612Z,1022.1
2022-12-04T02:24:02.781Z,1022.1
2022-12-04T02:25:02.502Z,1022.1
2022-12-04T02:26:02.554Z,1022.1
2022-12-04T02:27:02.382Z,1022.2
2022-12-04T02:28:02.365Z,1022.1
2022-12-04T02:29:02.297Z,1022.3
2022-12-04T02:30:02.146Z,1022.1
2022-12-04T02:31:02.770Z,1022.2
2022-12-04T02:32:01.977Z,1022.2
2022-12-04T02:33:02.002Z,1022.2
2022-12-04T02:34:01.794Z,1022.2
2022-12-04T02:35:01.823Z,1022.2
2022-12-04T02:36:02.682Z,1022.2
2022-12-04T02:37:02.581Z,1022.2
2022-12-04T02:38:02.617Z,1022.2
2022-12-04T02:39:02.451Z,1022.2
2022-12-04T02:40:02.515Z,1022.2
2022-12-04T02:41:02.400Z,1022.2
2022-12-04T02:42:02.265Z,1022.2
2022-12-04T02:43:02.396Z,1022.2
2022-12-04T02:44:02.120Z,1022.2
2022-12-04T02:45:02.181Z,1022.2
2022-12-04T02:46:02.257Z,1022.1
2022-12-04T02:47:01.884Z,1022.2
2022-12-04T02:48:01.905Z,1022.1
2022-12-04T02:49:01.726Z,1022.1
2022-12-04T02:50:01.802Z,1022.1
2022-12-04T02:51:02.731Z,1022
2022-12-04T02:52:02.561Z,1022
2022-12-04T02:53:02.643Z,1022.1
2022-12-04T02:54:02.472Z,1022
2022-12-04T02:55:09.198Z,1022.1
2022-12-04T02:56:01.845Z,1022.1
2022-12-04T02:57:01.863Z,1022.1
2022-12-04T02:58:01.737Z,1022.1
2022-12-04T02:59:02.750Z,1022
2022-12-04T03:00:02.620Z,1022.1
2022-12-04T03:01:02.883Z,1022.1
2022-12-04T03:02:02.540Z,1022
2022-12-04T03:03:02.644Z,1022
2022-12-04T03:04:02.488Z,1022.1
2022-12-04T03:05:02.320Z,1022.1
2022-12-04T03:06:02.365Z,1022.1
2022-12-04T03:07:02.314Z,1022.1
2022-12-04T03:08:02.369Z,1022.1
2022-12-04T03:09:02.261Z,1022.2
2022-12-04T03:10:02.098Z,1022.1
2022-12-04T03:11:02.125Z,1022.2
2022-12-04T03:12:01.971Z,1022.1
2022-12-04T03:13:02.006Z,1022.1
2022-12-04T03:14:01.836Z,1022.1
2022-12-04T03:15:01.889Z,1022.1
2022-12-04T03:16:01.737Z,1022.1
2022-12-04T03:17:02.012Z,1022.1
2022-12-04T03:18:01.822Z,1022.1
2022-12-04T03:19:02.740Z,1022
2022-12-04T03:20:02.584Z,1022
2022-12-04T03:21:02.636Z,1022
2022-12-04T03:22:02.461Z,1022
2022-12-04T03:23:02.477Z,1022
2022-12-04T03:24:02.415Z,1022
2022-12-04T03:25:02.297Z,1022
2022-12-04T03:26:02.316Z,1022
2022-12-04T03:27:02.071Z,1022
2022-12-04T03:28:02.113Z,1022
2022-12-04T03:29:01.961Z,1022
2022-12-04T03:30:01.927Z,1022
2022-12-04T03:31:02.105Z,1021.9
2022-12-04T03:32:02.066Z,1021.9
2022-12-04T03:33:02.180Z,1021.9
2022-12-04T03:34:01.887Z,1021.9
2022-12-04T03:35:01.913Z,1021.9
2022-12-04T03:36:01.741Z,1021.9
2022-12-04T03:37:01.809Z,1021.9
2022-12-04T03:38:01.776Z,1021.9
2022-12-04T03:39:01.842Z,1021.9
2022-12-04T03:40:02.740Z,1021.9
2022-12-04T03:41:02.705Z,1021.9
2022-12-04T03:42:02.634Z,1021.9
2022-12-04T03:43:02.447Z,1021.8
2022-12-04T03:44:02.418Z,1021.9
2022-12-04T03:45:02.413Z,1021.9
2022-12-04T03:46:02.394Z,1021.8
2022-12-04T03:47:02.344Z,1021.9
2022-12-04T03:48:02.334Z,1021.9
2022-12-04T03:49:02.293Z,1021.9
2022-12-04T03:50:02.068Z,1021.9
2022-12-04T03:51:02.059Z,1021.9
2022-12-04T03:52:01.840Z,1021.9
2022-12-04T03:53:01.871Z,1021.9
2022-12-04T03:54:01.741Z,1021.9
2022-12-04T03:55:02.753Z,1021.9
2022-12-04T03:56:02.595Z,1022
2022-12-04T03:57:02.650Z,1021.9
2022-12-04T03:58:02.482Z,1022
2022-12-04T03:59:02.595Z,1021.9
2022-12-04T04:00:03.968Z,1021.9
2022-12-04T04:01:01.932Z,1021.9
2022-12-04T04:02:02.672Z,1022
2022-12-04T04:03:02.713Z,1021.9
2022-12-04T04:04:02.525Z,1022
2022-12-04T04:05:02.399Z,1022
2022-12-04T04:06:02.396Z,1021.9
2022-12-04T04:07:02.325Z,1021.9
2022-12-04T04:08:02.321Z,1021.9
2022-12-04T04:09:02.159Z,1021.9
2022-12-04T04:10:01.969Z,1022
2022-12-04T04:11:01.932Z,1022
2022-12-04T04:12:01.755Z,1021.9
2022-12-04T04:13:01.846Z,1021.9
2022-12-04T04:14:02.762Z,1021.9
2022-12-04T04:15:02.593Z,1022
2022-12-04T04:16:02.808Z,1021.9
2022-12-04T04:17:02.567Z,1021.8
2022-12-04T04:18:02.604Z,1021.9
2022-12-04T04:19:02.563Z,1021.8
2022-12-04T04:20:02.471Z,1021.9
2022-12-04T04:21:02.412Z,1021.9
2022-12-04T04:22:02.294Z,1021.9
2022-12-04T04:23:02.283Z,1021.8
2022-12-04T04:24:02.067Z,1021.9
2022-12-04T04:25:02.047Z,1021.9
2022-12-04T04:26:01.856Z,1021.9
2022-12-04T04:27:01.879Z,1021.9
2022-12-04T04:28:01.735Z,1021.9
2022-12-04T04:29:02.759Z,1021.9
2022-12-04T04:30:02.646Z,1021.9
2022-12-04T04:31:02.878Z,1021.8
2022-12-04T04:32:02.541Z,1021.9
2022-12-04T04:33:02.596Z,1021.9
2022-12-04T04:34:02.418Z,1021.9
2022-12-04T04:35:02.467Z,1021.9
2022-12-04T04:36:02.521Z,1021.9
2022-12-04T04:37:02.375Z,1021.9
2022-12-04T04:38:02.444Z,1021.9
2022-12-04T04:39:02.438Z,1021.9
2022-12-04T04:40:02.181Z,1021.9
2022-12-04T04:41:02.235Z,1022
2022-12-04T04:42:02.045Z,1021.9
2022-12-04T04:43:02.089Z,1022
2022-12-04T04:44:01.829Z,1022
2022-12-04T04:45:01.893Z,1021.9
2022-12-04T04:46:01.956Z,1021.9
2022-12-04T04:47:01.761Z,1021.9
2022-12-04T04:48:01.791Z,1022
2022-12-04T04:49:02.744Z,1022
2022-12-04T04:50:02.605Z,1022
2022-12-04T04:51:02.603Z,1021.9
2022-12-04T04:52:02.506Z,1021.9
2022-12-04T04:53:02.539Z,1022
2022-12-04T04:54:02.341Z,1022.1
2022-12-04T04:55:02.382Z,1022
2022-12-04T04:56:02.369Z,1022
2022-12-04T04:57:02.174Z,1022
2022-12-04T04:58:02.212Z,1022
2022-12-04T04:59:02.066Z,1021.9
2022-12-04T05:00:02.013Z,1022
2022-12-04T05:01:01.895Z,1022
2022-12-04T05:02:01.945Z,1022
2022-12-04T05:03:02.100Z,1022
2022-12-04T05:04:01.771Z,1022
2022-12-04T05:05:01.892Z,1022
2022-12-04T05:06:02.779Z,1022.1
2022-12-04T05:07:02.630Z,1022.1
2022-12-04T05:08:02.956Z,1022.1
2022-12-04T05:09:01.703Z,1022
2022-12-04T05:10:02.726Z,1022.1
2022-12-04T05:11:02.594Z,1022.1
2022-12-04T05:12:02.676Z,1022.2
2022-12-04T05:13:02.567Z,1022.1
2022-12-04T05:14:02.585Z,1022
2022-12-04T05:15:02.423Z,1022.1
2022-12-04T05:16:02.612Z,1022
2022-12-04T05:17:12.489Z,1022.1
2022-12-04T05:18:02.551Z,1022.1
2022-12-04T05:19:03.002Z,1022.1
2022-12-04T05:20:01.706Z,1022.1
2022-12-04T05:21:02.760Z,1022
2022-12-04T05:22:02.625Z,1022.1
2022-12-04T05:23:02.670Z,1022.1
2022-12-04T05:24:02.504Z,1022.1
2022-12-04T05:25:02.559Z,1022.1
2022-12-04T05:26:02.328Z,1022.1
2022-12-04T05:27:02.392Z,1022
2022-12-04T05:28:02.335Z,1022
2022-12-04T05:29:02.179Z,1022.1
2022-12-04T05:30:02.274Z,1022
2022-12-04T05:31:02.481Z,1022
2022-12-04T05:32:02.298Z,1022
2022-12-04T05:33:02.335Z,1022
2022-12-04T05:34:02.285Z,1022
2022-12-04T05:35:11.844Z,1022
2022-12-04T05:36:02.717Z,1021.9
2022-12-04T05:37:02.583Z,1021.9
2022-12-04T05:38:02.507Z,1022
2022-12-04T05:39:02.596Z,1022
2022-12-04T05:40:02.440Z,1022
2022-12-04T05:41:02.261Z,1021.9
2022-12-04T05:42:02.320Z,1021.9
2022-12-04T05:43:02.264Z,1022
2022-12-04T05:44:01.988Z,1021.9
2022-12-04T05:45:02.124Z,1022
2022-12-04T05:46:01.900Z,1022.1
2022-12-04T05:47:02.119Z,1022.1
2022-12-04T05:48:01.920Z,1022.1
2022-12-04T05:49:01.721Z,1022
2022-12-04T05:50:01.814Z,1022.1
2022-12-04T05:51:02.761Z,1022.1
2022-12-04T05:52:02.605Z,1022.1
2022-12-04T05:53:02.643Z,1022.1
2022-12-04T05:54:02.497Z,1022.1
2022-12-04T05:55:02.560Z,1022.1
2022-12-04T05:56:02.373Z,1022.1
2022-12-04T05:57:02.439Z,1022.1
2022-12-04T05:58:02.382Z,1022.1
2022-12-04T05:59:02.278Z,1022.1
2022-12-04T06:00:02.265Z,1022.1
2022-12-04T06:01:02.095Z,1022.2
2022-12-04T06:02:02.303Z,1022.1
2022-12-04T06:03:02.273Z,1022.2
2022-12-04T06:04:01.941Z,1022.1
2022-12-04T06:05:01.988Z,1022.1
2022-12-04T06:06:01.764Z,1022.1
2022-12-04T06:07:01.843Z,1022.1
2022-12-04T06:08:03.027Z,1022.1
2022-12-04T06:09:01.787Z,1022.1
2022-12-04T06:10:01.795Z,1022.1
2022-12-04T06:11:02.735Z,1022.1
2022-12-04T06:12:02.582Z,1022.1
2022-12-04T06:13:02.563Z,1022.1
2022-12-04T06:14:02.463Z,1022.2
2022-12-04T06:15:02.583Z,1022.1
2022-12-04T06:16:02.584Z,1022.1
2022-12-04T06:17:02.352Z,1022.1
2022-12-04T06:18:02.393Z,1022.1
2022-12-04T06:19:02.329Z,1022.1
2022-12-04T06:20:12.161Z,1022.1
2022-12-04T06:21:02.147Z,1022.1
2022-12-04T06:22:02.008Z,1022.1
2022-12-04T06:23:01.788Z,1022.1
2022-12-04T06:24:01.765Z,1022.1
2022-12-04T06:25:02.771Z,1022.1
2022-12-04T06:26:07.753Z,1022.1
2022-12-04T06:27:29.178Z,1022.1
2022-12-04T06:28:01.920Z,1022.1
2022-12-04T06:29:01.916Z,1022.1
2022-12-04T06:30:01.740Z,1022.2
2022-12-04T06:31:01.783Z,1022.1
2022-12-04T06:32:02.921Z,1022.2
2022-12-04T06:33:01.715Z,1022.2
2022-12-04T06:34:02.717Z,1022.2
2022-12-04T06:35:02.599Z,1022.2
2022-12-04T06:36:02.656Z,1022.2
2022-12-04T06:37:02.452Z,1022.3
2022-12-04T06:38:02.513Z,1022.2
2022-12-04T06:39:02.522Z,1022.3
2022-12-04T06:40:02.303Z,1022.2
2022-12-04T06:41:02.461Z,1022.2
2022-12-04T06:42:02.301Z,1022.3
2022-12-04T06:43:02.128Z,1022.3
2022-12-04T06:44:02.167Z,1022.3
2022-12-04T06:45:02.040Z,1022.3
2022-12-04T06:46:02.336Z,1022.3
2022-12-04T06:47:01.964Z,1022.2
2022-12-04T06:48:01.950Z,1022.3
2022-12-04T06:49:01.782Z,1022.3
2022-12-04T06:50:01.748Z,1022.3
2022-12-04T06:51:02.735Z,1022.2
2022-12-04T06:52:02.554Z,1022.3
2022-12-04T06:53:09.009Z,1022.3
2022-12-04T06:54:01.712Z,1022.3
2022-12-04T06:55:02.804Z,1022.3
2022-12-04T06:56:02.594Z,1022.3
2022-12-04T06:57:02.627Z,1022.3
2022-12-04T06:58:02.465Z,1022.3
2022-12-04T06:59:02.540Z,1022.3
2022-12-04T07:00:02.471Z,1022.2
2022-12-04T07:01:02.443Z,1022.3
2022-12-04T07:02:02.695Z,1022.2
2022-12-04T07:03:02.608Z,1022.2
2022-12-04T07:04:02.447Z,1022.3
2022-12-04T07:05:02.450Z,1022.4
2022-12-04T07:06:02.460Z,1022.4
2022-12-04T07:07:01.963Z,1022.4
2022-12-04T07:08:02.169Z,1022.4
2022-12-04T07:09:01.948Z,1022.4
2022-12-04T07:10:01.967Z,1022.3
2022-12-04T07:11:01.752Z,1022.2
2022-12-04T07:12:01.959Z,1022.2
2022-12-04T07:13:02.767Z,1022.3
2022-12-04T07:14:02.628Z,1022.3
2022-12-04T07:15:02.668Z,1022.4
2022-12-04T07:16:02.705Z,1022.3
2022-12-04T07:17:02.391Z,1022.2
2022-12-04T07:18:02.251Z,1022.3
2022-12-04T07:19:02.083Z,1022.3
2022-12-04T07:20:02.093Z,1022.3
2022-12-04T07:21:01.890Z,1022.3
2022-12-04T07:22:01.923Z,1022.3
2022-12-04T07:23:07.787Z,1022.3
2022-12-04T07:24:02.491Z,1022.3
2022-12-04T07:25:02.495Z,1022.2
2022-12-04T07:26:02.436Z,1022.3
2022-12-04T07:27:02.284Z,1022.3
2022-12-04T07:28:02.280Z,1022.3
2022-12-04T07:29:02.094Z,1022.3
2022-12-04T07:30:02.126Z,1022.3
2022-12-04T07:31:01.910Z,1022.4
2022-12-04T07:32:02.216Z,1022.4
2022-12-04T07:33:02.033Z,1022.4
2022-12-04T07:34:01.839Z,1022.3
2022-12-04T07:35:01.862Z,1022.4
2022-12-04T07:36:01.790Z,1022.4
2022-12-04T07:37:02.762Z,1022.4
2022-12-04T07:38:02.606Z,1022.4
2022-12-04T07:39:02.662Z,1022.4
2022-12-04T07:40:02.501Z,1022.4
2022-12-04T07:41:02.548Z,1022.5
2022-12-04T07:42:02.387Z,1022.4
2022-12-04T07:43:02.422Z,1022.4
2022-12-04T07:44:02.361Z,1022.4
2022-12-04T07:45:02.228Z,1022.4
2022-12-04T07:46:02.467Z,1022.4
2022-12-04T07:47:02.412Z,1022.4
2022-12-04T07:48:02.208Z,1022.5
2022-12-04T07:49:02.240Z,1022.5
2022-12-04T07:50:01.992Z,1022.5
2022-12-04T07:51:02.013Z,1022.5
2022-12-04T07:52:01.781Z,1022.5
2022-12-04T07:53:01.808Z,1022.5
2022-12-04T07:54:04.882Z,1022.5
2022-12-04T07:55:02.619Z,1022.6
2022-12-04T07:56:02.646Z,1022.6
2022-12-04T07:57:02.470Z,1022.6
2022-12-04T07:58:02.496Z,1022.6
2022-12-04T07:59:02.472Z,1022.6
2022-12-04T08:00:02.298Z,1022.6
2022-12-04T08:01:02.664Z,1022.6
2022-12-04T08:02:02.578Z,1022.6
2022-12-04T08:03:02.354Z,1022.6
2022-12-04T08:04:02.599Z,1022.6
2022-12-04T08:05:02.727Z,1022.7
2022-12-04T08:06:02.490Z,1022.7
2022-12-04T08:07:02.535Z,1022.7
2022-12-04T08:08:02.589Z,1022.7
2022-12-04T08:09:10.736Z,1022.7
2022-12-04T08:10:02.563Z,1022.7
2022-12-04T08:11:02.436Z,1022.7
2022-12-04T08:12:02.460Z,1022.8
2022-12-04T08:13:02.455Z,1022.7
2022-12-04T08:14:02.248Z,1022.7
2022-12-04T08:15:02.304Z,1022.7
2022-12-04T08:16:02.230Z,1022.7
2022-12-04T08:17:02.213Z,1022.7
2022-12-04T08:18:02.028Z,1022.7
2022-12-04T08:19:01.920Z,1022.6
2022-12-04T08:20:01.870Z,1022.6
2022-12-04T08:21:01.715Z,1022.5
2022-12-04T08:22:02.786Z,1022.6
2022-12-04T08:23:02.604Z,1022.6
2022-12-04T08:24:02.669Z,1022.7
2022-12-04T08:25:02.483Z,1022.6
2022-12-04T08:26:02.553Z,1022.6
2022-12-04T08:27:02.487Z,1022.6
2022-12-04T08:28:02.314Z,1022.5
2022-12-04T08:29:02.320Z,1022.5
2022-12-04T08:30:02.294Z,1022.5
2022-12-04T08:31:02.306Z,1022.5
2022-12-04T08:32:02.184Z,1022.5
2022-12-04T08:33:02.225Z,1022.5
2022-12-04T08:34:02.028Z,1022.5
2022-12-04T08:35:02.061Z,1022.4
2022-12-04T08:36:01.953Z,1022.3
2022-12-04T08:37:02.103Z,1022.5
2022-12-04T08:38:01.873Z,1022.4
2022-12-04T08:39:01.896Z,1022.4
2022-12-04T08:40:01.745Z,1022.4
2022-12-04T08:41:02.767Z,1022.4
2022-12-04T08:42:02.629Z,1022.4
2022-12-04T08:43:02.586Z,1022.4
2022-12-04T08:44:02.456Z,1022.3
2022-12-04T08:45:02.540Z,1022.4
2022-12-04T08:46:02.693Z,1022.4
2022-12-04T08:47:02.484Z,1022.4
2022-12-04T08:48:02.516Z,1022.4
2022-12-04T08:49:02.471Z,1022.5
2022-12-04T08:50:02.344Z,1022.4
2022-12-04T08:51:02.353Z,1022.5
2022-12-04T08:52:02.315Z,1022.5
2022-12-04T08:53:02.111Z,1022.5
2022-12-04T08:54:02.127Z,1022.5
2022-12-04T08:55:01.905Z,1022.5
2022-12-04T08:56:01.915Z,1022.5
2022-12-04T08:57:01.747Z,1022.5
2022-12-04T08:58:01.783Z,1022.5
2022-12-04T08:59:02.764Z,1022.6
2022-12-04T09:00:02.581Z,1022.6
2022-12-04T09:01:02.604Z,1022.6
2022-12-04T09:02:02.944Z,1022.5
2022-12-04T09:03:02.797Z,1022.5
2022-12-04T09:04:02.827Z,1022.5
2022-12-04T09:05:02.641Z,1022.5
2022-12-04T09:06:02.501Z,1022.4
2022-12-04T09:07:02.532Z,1022.4
2022-12-04T09:08:02.737Z,1022.3
2022-12-04T09:09:02.488Z,1022.3
2022-12-04T09:10:02.540Z,1022.3
2022-12-04T09:11:02.479Z,1022.2
2022-12-04T09:12:02.319Z,1022.2
2022-12-04T09:13:02.367Z,1022.3
2022-12-04T09:14:02.299Z,1022.3
2022-12-04T09:15:02.151Z,1022.2
2022-12-04T09:16:02.203Z,1022.2
2022-12-04T09:17:02.607Z,1022.3
2022-12-04T09:18:02.400Z,1022.3
2022-12-04T09:19:02.434Z,1022.3
2022-12-04T09:20:03.409Z,1022.2
2022-12-04T09:21:02.329Z,1022.2
2022-12-04T09:22:02.380Z,1022.2
2022-12-04T09:23:05.931Z,1022.2
2022-12-04T09:24:02.634Z,1022.2
2022-12-04T09:25:02.658Z,1022.2
2022-12-04T09:26:02.537Z,1022.2
2022-12-04T09:27:02.694Z,1022.2
2022-12-04T09:28:02.561Z,1022.1
2022-12-04T09:29:02.463Z,1022.2
2022-12-04T09:30:02.546Z,1022.2
2022-12-04T09:31:02.734Z,1022.2
2022-12-04T09:32:02.659Z,1022.2
2022-12-04T09:33:02.733Z,1022.2
2022-12-04T09:34:02.598Z,1022.2
2022-12-04T09:35:02.652Z,1022.2
2022-12-04T09:36:02.483Z,1022.2
2022-12-04T09:37:02.603Z,1022.2
2022-12-04T09:38:02.461Z,1022.2
2022-12-04T09:39:02.300Z,1022.2
2022-12-04T09:40:02.349Z,1022.2
2022-12-04T09:41:02.245Z,1022.2
2022-12-04T09:42:02.107Z,1022.2
2022-12-04T09:43:02.133Z,1022.2
2022-12-04T09:44:01.929Z,1022.2
2022-12-04T09:45:01.929Z,1022.1
2022-12-04T09:46:01.954Z,1022.1
2022-12-04T09:47:02.284Z,1022.1
2022-12-04T09:48:02.241Z,1022.1
2022-12-04T09:49:01.948Z,1022.1
2022-12-04T09:50:01.981Z,1022.1
2022-12-04T09:51:01.832Z,1022.1
2022-12-04T09:52:01.849Z,1022.1
2022-12-04T09:53:01.717Z,1022.2
2022-12-04T09:54:02.762Z,1022.2
2022-12-04T09:55:02.641Z,1022.2
2022-12-04T09:56:02.675Z,1022.2
2022-12-04T09:57:02.529Z,1022.1
2022-12-04T09:58:02.997Z,1022.1
2022-12-04T09:59:01.712Z,1022
2022-12-04T10:00:02.737Z,1022
2022-12-04T10:01:02.548Z,1022
2022-12-04T10:02:02.785Z,1022
2022-12-04T10:03:03.068Z,1022
2022-12-04T10:04:07.185Z,1021.9
2022-12-04T10:05:01.845Z,1021.9
2022-12-04T10:06:01.898Z,1022
2022-12-04T10:07:01.732Z,1021.9
2022-12-04T10:08:02.001Z,1022
2022-12-04T10:09:01.728Z,1022
2022-12-04T10:10:01.827Z,1022
2022-12-04T10:11:02.756Z,1021.9
2022-12-04T10:12:02.572Z,1022
2022-12-04T10:13:02.620Z,1022
2022-12-04T10:14:02.453Z,1022
2022-12-04T10:15:02.481Z,1022
2022-12-04T10:16:02.693Z,1022
2022-12-04T10:17:02.306Z,1022
2022-12-04T10:18:02.364Z,1022
2022-12-04T10:19:02.263Z,1022
2022-12-04T10:20:02.096Z,1022
2022-12-04T10:21:02.173Z,1022.1
2022-12-04T10:22:02.084Z,1022.1
2022-12-04T10:23:02.017Z,1022.2
2022-12-04T10:24:01.864Z,1022.1
2022-12-04T10:25:01.925Z,1022.1
2022-12-04T10:26:01.693Z,1022.2
2022-12-04T10:27:02.771Z,1022.1
2022-12-04T10:28:02.605Z,1022.1
2022-12-04T10:29:02.659Z,1022.1
2022-12-04T10:30:02.534Z,1022.1
2022-12-04T10:31:02.927Z,1022
2022-12-04T10:32:02.512Z,1022
2022-12-04T10:33:02.556Z,1021.9
2022-12-04T10:34:02.368Z,1021.8
2022-12-04T10:35:02.408Z,1021.9
2022-12-04T10:36:02.354Z,1021.9
2022-12-04T10:37:02.187Z,1021.9
2022-12-04T10:38:02.615Z,1021.8
2022-12-04T10:39:02.443Z,1021.8
2022-12-04T10:40:02.241Z,1021.8
2022-12-04T10:41:02.231Z,1021.8
2022-12-04T10:42:02.056Z,1021.8
2022-12-04T10:43:02.092Z,1021.8
2022-12-04T10:44:01.911Z,1021.7
2022-12-04T10:45:02.032Z,1021.7
2022-12-04T10:46:01.720Z,1021.7
2022-12-04T10:47:02.386Z,1021.8
2022-12-04T10:48:02.188Z,1021.8
2022-12-04T10:49:01.999Z,1021.8
2022-12-04T10:50:02.016Z,1021.8
2022-12-04T10:51:01.851Z,1021.8
2022-12-04T10:52:01.857Z,1021.8
2022-12-04T10:53:01.676Z,1021.8
2022-12-04T10:54:02.758Z,1021.8
2022-12-04T10:55:02.629Z,1021.8
2022-12-04T10:56:02.651Z,1021.7
2022-12-04T10:57:02.507Z,1021.7
2022-12-04T10:58:02.561Z,1021.6
2022-12-04T10:59:02.363Z,1021.6
2022-12-04T11:00:02.492Z,1021.7
2022-12-04T11:01:02.379Z,1021.7
2022-12-04T11:02:07.807Z,1021.7
2022-12-04T11:03:02.923Z,1021.7
2022-12-04T11:04:02.722Z,1021.7
2022-12-04T11:05:02.614Z,1021.7
2022-12-04T11:06:02.653Z,1021.6
2022-12-04T11:07:02.535Z,1021.5
2022-12-04T11:08:03.002Z,1021.6
2022-12-04T11:09:01.729Z,1021.5
2022-12-04T11:10:01.816Z,1021.5
2022-12-04T11:11:02.756Z,1021.5
2022-12-04T11:12:02.596Z,1021.5
2022-12-04T11:13:02.613Z,1021.5
2022-12-04T11:14:02.501Z,1021.4
2022-12-04T11:15:02.550Z,1021.5
2022-12-04T11:16:02.617Z,1021.5
2022-12-04T11:17:02.358Z,1021.5
2022-12-04T11:18:02.380Z,1021.4
2022-12-04T11:19:02.315Z,1021.5
2022-12-04T11:20:02.156Z,1021.4
2022-12-04T11:21:02.151Z,1021.4
2022-12-04T11:22:02.005Z,1021.4
2022-12-04T11:23:02.025Z,1021.4
2022-12-04T11:24:01.844Z,1021.4
2022-12-04T11:25:01.876Z,1021.4
2022-12-04T11:26:06.903Z,1021.3
2022-12-04T11:27:02.612Z,1021.4
2022-12-04T11:28:02.652Z,1021.4
2022-12-04T11:29:02.499Z,1021.3
2022-12-04T11:30:02.580Z,1021.4
2022-12-04T11:31:02.626Z,1021.4
2022-12-04T11:32:08.732Z,1021.4
2022-12-04T11:33:02.457Z,1021.4
2022-12-04T11:34:02.500Z,1021.4
2022-12-04T11:35:02.489Z,1021.4
2022-12-04T11:36:02.330Z,1021.3
2022-12-04T11:37:02.311Z,1021.4
2022-12-04T11:38:02.241Z,1021.3
2022-12-04T11:39:02.048Z,1021.4
2022-12-04T11:40:02.059Z,1021.4
2022-12-04T11:41:01.998Z,1021.3
2022-12-04T11:42:01.897Z,1021.4
2022-12-04T11:43:01.788Z,1021.3
2022-12-04T11:44:01.836Z,1021.3
2022-12-04T11:45:02.846Z,1021.4
2022-12-04T11:46:02.621Z,1021.3
2022-12-04T11:47:02.000Z,1021.3
2022-12-04T11:48:01.780Z,1021.3
2022-12-04T11:49:01.690Z,1021.3
2022-12-04T11:50:01.946Z,1021.3
2022-12-04T11:51:02.823Z,1021.2
2022-12-04T11:52:02.620Z,1021.2
2022-12-04T11:53:01.787Z,1021.2
2022-12-04T11:54:02.704Z,1021.2
2022-12-04T11:55:02.588Z,1021.2
2022-12-04T11:56:02.574Z,1021.2
2022-12-04T11:57:02.463Z,1021.3
2022-12-04T11:58:02.529Z,1021.3
2022-12-04T11:59:02.469Z,1021.3
2022-12-04T12:00:02.409Z,1021.3
2022-12-04T12:01:02.519Z,1021.2
2022-12-04T12:02:03.106Z,1021.3
2022-12-04T12:03:02.419Z,1021.2
2022-12-04T12:04:02.306Z,1021.2
2022-12-04T12:05:02.252Z,1021.3
2022-12-04T12:06:01.997Z,1021.2
2022-12-04T12:07:02.031Z,1021.2
2022-12-04T12:08:03.826Z,1021.2
2022-12-04T12:09:02.533Z,1021.1
2022-12-04T12:10:02.606Z,1021.1
2022-12-04T12:11:02.435Z,1021.2
2022-12-04T12:12:02.488Z,1021.1
2022-12-04T12:13:02.356Z,1021.2
2022-12-04T12:14:02.270Z,1021.1
2022-12-04T12:15:02.284Z,1021.1
2022-12-04T12:16:02.415Z,1021.1
2022-12-04T12:17:02.075Z,1021.2
2022-12-04T12:18:02.135Z,1021.2
2022-12-04T12:19:01.967Z,1021.2
2022-12-04T12:20:02.069Z,1021.2
2022-12-04T12:21:01.745Z,1021.2
2022-12-04T12:22:07.235Z,1021.1
2022-12-04T12:23:01.938Z,1021.2
2022-12-04T12:24:01.922Z,1021.2
2022-12-04T12:25:01.702Z,1021.2
2022-12-04T12:26:01.778Z,1021.2
2022-12-04T12:27:01.708Z,1021.2
2022-12-04T12:28:02.723Z,1021.1
2022-12-04T12:29:02.619Z,1021.2
2022-12-04T12:30:02.768Z,1021.1
2022-12-04T12:31:06.671Z,1021.2
2022-12-04T12:32:02.729Z,1021.1
2022-12-04T12:33:02.576Z,1021.1